Time;durP1;ratioP1;P1;durP2;ratioP2;P2;SDS_P1;SDS_P2;PMS_P1;PMS_P2;Temp;Humidity;BMP_temperature;BMP_pressure;BME280_temperature;BME280_humidity;BME280_pressure;Samples;Min_cycle;Max_cycle;Signal;HPM_P1;HPM_P2
2023/04/18 00:00:25;;;;;;;9.33;6.17;;;;;;;;;;5120282;28;20494;-66
2023/04/18 00:02:52;;;;;;;6.90;5.57;;;;;;;;;;5119917;28;20512;-67
2023/04/18 00:05:19;;;;;;;5.90;4.80;;;;;;;;;;5109316;28;20467;-67
2023/04/18 00:07:45;;;;;;;6.37;5.20;;;;;;;;;;5110566;28;20549;-66
2023/04/18 00:10:12;;;;;;;7.67;6.40;;;;;;;;;;5111562;28;20821;-66
2023/04/18 00:12:41;;;;;;;6.30;5.70;;;;;;;;;;5115746;28;20834;-66
2023/04/18 00:15:08;;;;;;;7.20;5.33;;;;;;;;;;5119265;28;20906;-66
2023/04/18 00:17:37;;;;;;;6.43;5.10;;;;;;;;;;5131181;27;20449;-66
2023/04/18 00:20:05;;;;;;;5.63;5.13;;;;;;;;;;5118470;28;20470;-66
2023/04/18 00:22:32;;;;;;;6.87;5.53;;;;;;;;;;5122410;27;20453;-66
2023/04/18 00:24:59;;;;;;;6.10;5.00;;;;;;;;;;5115208;28;20523;-66
2023/04/18 00:27:25;;;;;;;6.47;5.30;;;;;;;;;;5119601;27;20470;-66
2023/04/18 00:29:53;;;;;;;5.77;5.20;;;;;;;;;;5118565;28;20879;-66
2023/04/18 00:32:19;;;;;;;6.00;5.40;;;;;;;;;;5110290;28;20582;-66
2023/04/18 00:34:46;;;;;;;6.67;5.40;;;;;;;;;;5109581;28;21029;-66
2023/04/18 00:37:12;;;;;;;6.77;5.93;;;;;;;;;;5120375;27;20515;-66
2023/04/18 00:39:38;;;;;;;6.40;5.33;;;;;;;;;;5105746;28;20531;-66
2023/04/18 00:42:05;;;;;;;5.13;4.63;;;;;;;;;;5120186;28;21049;-66
2023/04/18 00:44:31;;;;;;;6.30;5.33;;;;;;;;;;5123909;28;20481;-66
2023/04/18 00:46:59;;;;;;;6.10;5.33;;;;;;;;;;5106861;28;20532;-66
2023/04/18 00:49:25;;;;;;;7.23;5.53;;;;;;;;;;5112825;28;20549;-67
2023/04/18 00:51:52;;;;;;;6.33;5.73;;;;;;;;;;5123891;28;20512;-66
2023/04/18 00:54:19;;;;;;;8.30;4.83;;;;;;;;;;5113536;28;20445;-66
2023/04/18 00:56:46;;;;;;;6.30;5.33;;;;;;;;;;5112080;28;20516;-67
2023/04/18 00:59:13;;;;;;;8.37;6.33;;;;;;;;;;5117290;28;20446;-66
2023/04/18 01:01:40;;;;;;;6.50;5.60;;;;;;;;;;5123882;28;20529;-66
2023/04/18 01:04:08;;;;;;;6.97;5.90;;;;;;;;;;5105330;28;20485;-66
2023/04/18 01:06:35;;;;;;;8.20;6.40;;;;;;;;;;5122750;28;20477;-66
2023/04/18 01:09:04;;;;;;;8.10;6.20;;;;;;;;;;5107657;28;20517;-66
2023/04/18 01:11:30;;;;;;;5.23;4.70;;;;;;;;;;5122078;28;20600;-66
2023/04/18 01:14:00;;;;;;;6.83;6.00;;;;;;;;;;5112500;28;20526;-66
2023/04/18 01:16:26;;;;;;;7.70;6.70;;;;;;;;;;5118337;28;20450;-66
2023/04/18 01:18:53;;;;;;;7.97;6.70;;;;;;;;;;5111066;28;20969;-66
2023/04/18 01:21:21;;;;;;;7.37;6.13;;;;;;;;;;5112954;28;20478;-66
2023/04/18 01:23:48;;;;;;;7.27;6.47;;;;;;;;;;5108418;28;20455;-66
2023/04/18 01:26:15;;;;;;;8.00;7.10;;;;;;;;;;5112635;28;20446;-65
2023/04/18 01:28:42;;;;;;;10.63;6.43;;;;;;;;;;5111820;28;20454;-66
2023/04/18 01:31:08;;;;;;;7.50;6.60;;;;;;;;;;5113078;28;20559;-67
2023/04/18 01:33:34;;;;;;;7.23;6.13;;;;;;;;;;5112007;28;20464;-66
2023/04/18 01:36:01;;;;;;;9.37;8.20;;;;;;;;;;5117357;28;20788;-66
2023/04/18 01:38:27;;;;;;;8.17;6.33;;;;;;;;;;5116748;28;20998;-66
2023/04/18 01:40:54;;;;;;;8.43;7.63;;;;;;;;;;5113105;27;20948;-66
2023/04/18 01:43:21;;;;;;;7.23;6.53;;;;;;;;;;5130057;27;20481;-67
2023/04/18 01:45:48;;;;;;;7.70;6.90;;;;;;;;;;5121002;27;20533;-67
2023/04/18 01:48:25;;;;;;;8.83;7.87;;;;;;;;;;5117659;27;20526;-66
2023/04/18 01:50:51;;;;;;;11.83;7.10;;;;;;;;;;5116319;28;22373;-66
2023/04/18 01:53:18;;;;;;;9.10;7.43;;;;;;;;;;5119749;28;20533;-66
2023/04/18 01:55:44;;;;;;;7.97;7.17;;;;;;;;;;5110160;27;20489;-65
2023/04/18 01:58:10;;;;;;;10.70;7.70;;;;;;;;;;5115279;28;20514;-65
2023/04/18 02:00:38;;;;;;;8.60;7.07;;;;;;;;;;5111752;27;20510;-65
2023/04/18 02:03:04;;;;;;;7.23;6.53;;;;;;;;;;5106552;28;20537;-65
2023/04/18 02:05:31;;;;;;;8.40;7.50;;;;;;;;;;5107750;28;20546;-65
2023/04/18 02:07:58;;;;;;;7.47;6.67;;;;;;;;;;5118424;28;20477;-65
2023/04/18 02:10:24;;;;;;;8.70;7.00;;;;;;;;;;5114916;28;20451;-65
2023/04/18 02:12:50;;;;;;;9.23;8.23;;;;;;;;;;5112209;28;20557;-65
2023/04/18 02:15:17;;;;;;;8.43;7.53;;;;;;;;;;5121982;28;20481;-65
2023/04/18 02:17:45;;;;;;;10.70;8.80;;;;;;;;;;5101349;28;20561;-65
2023/04/18 02:20:12;;;;;;;9.50;8.30;;;;;;;;;;5115499;28;20507;-65
2023/04/18 02:22:38;;;;;;;9.20;7.97;;;;;;;;;;5121778;28;20446;-66
2023/04/18 02:25:05;;;;;;;9.13;8.20;;;;;;;;;;5120383;28;20465;-65
2023/04/18 02:27:31;;;;;;;9.77;8.60;;;;;;;;;;5102213;28;20517;-65
2023/04/18 02:29:58;;;;;;;10.73;7.47;;;;;;;;;;5118360;28;20446;-65
2023/04/18 02:32:24;;;;;;;11.93;8.20;;;;;;;;;;5112050;28;20906;-65
2023/04/18 02:34:52;;;;;;;10.37;8.87;;;;;;;;;;5117448;28;20458;-65
2023/04/18 02:37:18;;;;;;;9.67;8.13;;;;;;;;;;5115333;28;20540;-65
2023/04/18 02:39:45;;;;;;;12.87;8.97;;;;;;;;;;5107708;28;20466;-65
2023/04/18 02:42:11;;;;;;;9.07;7.97;;;;;;;;;;5113623;28;20475;-65
2023/04/18 02:44:37;;;;;;;10.60;9.00;;;;;;;;;;5117980;28;20474;-66
2023/04/18 02:47:04;;;;;;;9.87;8.70;;;;;;;;;;5109538;28;20517;-66
2023/04/18 02:49:31;;;;;;;9.53;8.60;;;;;;;;;;5120881;28;20513;-66
2023/04/18 02:51:59;;;;;;;11.73;9.00;;;;;;;;;;5109529;28;20479;-65
2023/04/18 02:54:25;;;;;;;10.47;9.30;;;;;;;;;;5118032;28;20498;-66
2023/04/18 02:56:53;;;;;;;9.73;8.70;;;;;;;;;;5112289;28;20536;-65
2023/04/18 02:59:19;;;;;;;11.90;9.90;;;;;;;;;;5116063;28;20530;-66
2023/04/18 03:01:46;;;;;;;11.70;9.30;;;;;;;;;;5108565;28;20483;-65
2023/04/18 03:04:12;;;;;;;11.50;8.67;;;;;;;;;;5109469;27;20505;-64
2023/04/18 03:06:39;;;;;;;10.53;9.43;;;;;;;;;;5114855;28;20481;-65
2023/04/18 03:09:07;;;;;;;10.37;8.13;;;;;;;;;;5121801;28;20438;-65
2023/04/18 03:11:33;;;;;;;10.90;9.80;;;;;;;;;;5129434;27;20510;-66
2023/04/18 03:13:59;;;;;;;10.23;9.23;;;;;;;;;;5111375;28;20474;-66
2023/04/18 03:16:26;;;;;;;11.90;10.07;;;;;;;;;;5120618;28;20635;-66
2023/04/18 03:18:52;;;;;;;11.03;9.90;;;;;;;;;;5098771;28;20471;-65
2023/04/18 03:21:19;;;;;;;9.33;8.33;;;;;;;;;;5108536;28;20501;-66
2023/04/18 03:23:48;;;;;;;9.10;8.20;;;;;;;;;;5114930;28;20560;-65
2023/04/18 03:26:16;;;;;;;13.33;9.60;;;;;;;;;;5118973;28;20453;-66
2023/04/18 03:28:43;;;;;;;11.00;9.80;;;;;;;;;;5116309;28;20595;-67
2023/04/18 03:31:09;;;;;;;11.53;10.30;;;;;;;;;;5109902;28;20479;-67
2023/04/18 03:33:38;;;;;;;10.87;9.53;;;;;;;;;;5113094;28;20470;-66
2023/04/18 03:36:05;;;;;;;10.70;9.13;;;;;;;;;;5103016;28;20462;-68
2023/04/18 03:38:31;;;;;;;10.73;8.50;;;;;;;;;;5121104;28;20442;-67
2023/04/18 03:40:58;;;;;;;11.07;9.87;;;;;;;;;;5107737;28;20489;-67
2023/04/18 03:43:25;;;;;;;13.00;10.83;;;;;;;;;;5114030;28;20471;-66
2023/04/18 03:45:52;;;;;;;12.07;10.50;;;;;;;;;;5116972;28;20543;-67
2023/04/18 03:48:18;;;;;;;13.27;11.90;;;;;;;;;;5110628;28;20511;-67
2023/04/18 03:50:45;;;;;;;14.17;12.60;;;;;;;;;;5121459;27;20541;-65
2023/04/18 03:53:11;;;;;;;12.93;10.67;;;;;;;;;;5120098;27;20483;-62
2023/04/18 03:55:38;;;;;;;13.17;11.40;;;;;;;;;;5132028;27;20466;-63
2023/04/18 03:58:05;;;;;;;16.83;13.10;;;;;;;;;;5121232;28;20454;-63
2023/04/18 04:00:33;;;;;;;17.53;13.33;;;;;;;;;;5112051;28;20533;-63
2023/04/18 04:02:59;;;;;;;13.50;12.10;;;;;;;;;;5123440;28;20537;-63
2023/04/18 04:05:25;;;;;;;16.00;12.67;;;;;;;;;;5118061;28;20486;-63
2023/04/18 04:07:52;;;;;;;17.10;13.53;;;;;;;;;;5116824;28;20512;-63
2023/04/18 04:10:18;;;;;;;18.20;13.43;;;;;;;;;;5097800;28;20453;-63
2023/04/18 04:12:45;;;;;;;16.53;13.00;;;;;;;;;;5112817;28;20515;-63
2023/04/18 04:15:12;;;;;;;16.50;12.80;;;;;;;;;;5113482;28;20542;-64
2023/04/18 04:17:39;;;;;;;18.50;14.30;;;;;;;;;;5113137;28;20480;-64
2023/04/18 04:20:06;;;;;;;15.97;12.90;;;;;;;;;;5106823;28;20489;-63
2023/04/18 04:22:33;;;;;;;20.30;12.90;;;;;;;;;;5128702;28;20476;-64
2023/04/18 04:24:59;;;;;;;18.27;13.60;;;;;;;;;;5118353;28;20532;-64
2023/04/18 04:27:26;;;;;;;18.70;12.90;;;;;;;;;;5120998;28;20484;-64
2023/04/18 04:29:52;;;;;;;15.87;12.57;;;;;;;;;;5118227;28;20533;-65
2023/04/18 04:32:20;;;;;;;17.17;13.23;;;;;;;;;;5119316;28;20485;-70
2023/04/18 04:34:48;;;;;;;15.53;13.63;;;;;;;;;;5103278;28;20458;-70
2023/04/18 04:37:17;;;;;;;16.47;13.00;;;;;;;;;;5110262;28;20509;-70
2023/04/18 04:39:43;;;;;;;18.13;12.80;;;;;;;;;;5120326;28;20450;-69
2023/04/18 04:42:11;;;;;;;14.80;11.87;;;;;;;;;;5114932;28;20482;-69
2023/04/18 04:44:37;;;;;;;14.27;12.30;;;;;;;;;;5119430;28;20840;-69
2023/04/18 04:47:03;;;;;;;17.27;13.33;;;;;;;;;;5110214;28;20518;-69
2023/04/18 04:49:30;;;;;;;18.03;13.60;;;;;;;;;;5118285;28;20469;-69
2023/04/18 04:51:58;;;;;;;16.37;12.40;;;;;;;;;;5114574;28;20541;-69
2023/04/18 04:54:24;;;;;;;14.10;12.60;;;;;;;;;;5115642;28;20479;-69
2023/04/18 04:56:50;;;;;;;15.57;13.50;;;;;;;;;;5120399;28;21017;-69
2023/04/18 04:59:17;;;;;;;18.53;13.33;;;;;;;;;;5105083;28;20864;-69
2023/04/18 05:01:43;;;;;;;19.37;15.20;;;;;;;;;;5110847;28;20477;-70
2023/04/18 05:04:10;;;;;;;18.03;15.10;;;;;;;;;;5109351;28;21285;-69
2023/04/18 05:06:36;;;;;;;20.23;15.87;;;;;;;;;;5130987;27;20838;-69
2023/04/18 05:09:04;;;;;;;23.03;16.97;;;;;;;;;;5131136;27;20446;-70
2023/04/18 05:11:30;;;;;;;20.40;15.13;;;;;;;;;;5119213;27;20533;-69
2023/04/18 05:13:58;;;;;;;21.43;15.90;;;;;;;;;;5127730;27;20483;-69
2023/04/18 05:16:24;;;;;;;22.47;15.60;;;;;;;;;;5124428;27;20451;-68
2023/04/18 05:18:51;;;;;;;18.07;15.20;;;;;;;;;;5120119;27;20561;-69
2023/04/18 05:21:17;;;;;;;19.63;15.93;;;;;;;;;;5132939;27;20482;-69
2023/04/18 05:23:44;;;;;;;22.73;16.33;;;;;;;;;;5117769;27;20489;-69
2023/04/18 05:26:11;;;;;;;23.63;16.87;;;;;;;;;;5111739;27;20987;-70
2023/04/18 05:28:38;;;;;;;20.67;17.50;;;;;;;;;;5127837;27;20533;-71
2023/04/18 05:31:04;;;;;;;21.27;15.60;;;;;;;;;;5116671;28;20888;-71
2023/04/18 05:33:31;;;;;;;25.47;16.80;;;;;;;;;;5121601;27;20536;-71
2023/04/18 05:35:58;;;;;;;22.83;17.90;;;;;;;;;;5116325;27;20919;-70
2023/04/18 05:38:24;;;;;;;19.83;16.67;;;;;;;;;;5108427;27;20445;-70
2023/04/18 05:40:50;;;;;;;23.03;16.73;;;;;;;;;;5126246;27;20506;-70
2023/04/18 05:43:19;;;;;;;22.47;18.67;;;;;;;;;;5131194;27;20457;-72
2023/04/18 05:45:45;;;;;;;23.03;16.97;;;;;;;;;;5121238;27;20480;-71
2023/04/18 05:48:12;;;;;;;24.40;19.10;;;;;;;;;;5130608;27;20484;-71
2023/04/18 05:50:38;;;;;;;27.13;17.57;;;;;;;;;;5115739;27;20450;-72
2023/04/18 05:53:04;;;;;;;25.33;17.90;;;;;;;;;;5102720;28;20559;-70
2023/04/18 05:55:31;;;;;;;21.80;17.23;;;;;;;;;;5114606;28;20514;-70
2023/04/18 05:57:57;;;;;;;25.50;19.03;;;;;;;;;;5115476;28;20446;-71
2023/04/18 06:00:25;;;;;;;26.13;18.20;;;;;;;;;;5120748;28;20481;-70
2023/04/18 06:02:52;;;;;;;25.83;18.37;;;;;;;;;;5114446;28;20553;-69
2023/04/18 06:05:18;;;;;;;25.20;17.80;;;;;;;;;;5102360;28;20474;-70
2023/04/18 06:07:45;;;;;;;27.33;20.00;;;;;;;;;;5118586;28;20475;-70
2023/04/18 06:10:12;;;;;;;26.40;18.47;;;;;;;;;;5114211;28;20482;-70
2023/04/18 06:12:38;;;;;;;28.20;20.60;;;;;;;;;;5115255;28;20482;-70
2023/04/18 06:15:05;;;;;;;29.70;18.83;;;;;;;;;;5108847;28;20478;-70
2023/04/18 06:17:33;;;;;;;22.33;19.03;;;;;;;;;;5099847;28;20537;-70
2023/04/18 06:20:00;;;;;;;26.73;21.00;;;;;;;;;;5116344;28;20450;-70
2023/04/18 06:22:26;;;;;;;26.67;20.03;;;;;;;;;;5122301;28;20973;-70
2023/04/18 06:24:54;;;;;;;26.90;19.23;;;;;;;;;;5101920;28;20519;-70
2023/04/18 06:27:20;;;;;;;27.50;18.40;;;;;;;;;;5104753;28;20454;-70
2023/04/18 06:29:47;;;;;;;26.30;20.30;;;;;;;;;;5115421;28;20449;-70
2023/04/18 06:32:13;;;;;;;22.23;18.40;;;;;;;;;;5111409;28;20562;-70
2023/04/18 06:34:42;;;;;;;28.60;19.97;;;;;;;;;;5090688;28;20455;-71
2023/04/18 06:37:08;;;;;;;27.93;19.30;;;;;;;;;;5098891;28;20515;-70
2023/04/18 06:39:35;;;;;;;27.20;17.90;;;;;;;;;;5102417;28;20447;-70
2023/04/18 06:42:03;;;;;;;23.83;17.00;;;;;;;;;;5099329;28;20570;-70
2023/04/18 06:44:30;;;;;;;26.13;19.67;;;;;;;;;;5097163;28;20471;-70
2023/04/18 06:46:57;;;;;;;29.20;20.17;;;;;;;;;;5112586;28;20531;-71
2023/04/18 06:49:23;;;;;;;25.03;18.43;;;;;;;;;;5123727;27;20448;-70
2023/04/18 06:51:51;;;;;;;30.13;18.50;;;;;;;;;;5118046;28;20482;-70
2023/04/18 06:54:18;;;;;;;30.57;20.60;;;;;;;;;;5127919;27;20515;-70
2023/04/18 06:56:44;;;;;;;27.17;19.50;;;;;;;;;;5124934;27;20534;-70
2023/04/18 06:59:10;;;;;;;29.30;20.50;;;;;;;;;;5126312;27;20520;-70
2023/04/18 07:01:40;;;;;;;29.43;20.10;;;;;;;;;;5115297;28;20600;-70
2023/04/18 07:04:06;;;;;;;26.30;20.10;;;;;;;;;;5108776;28;20497;-70
2023/04/18 07:06:33;;;;;;;28.23;19.70;;;;;;;;;;5115923;28;21363;-70
2023/04/18 07:09:01;;;;;;;31.90;21.47;;;;;;;;;;5115986;28;20442;-70
2023/04/18 07:11:29;;;;;;;31.20;21.13;;;;;;;;;;5111160;28;20536;-70
2023/04/18 07:13:55;;;;;;;30.53;20.33;;;;;;;;;;5121634;27;20539;-70
2023/04/18 07:16:22;;;;;;;30.20;23.30;;;;;;;;;;5113799;28;20505;-70
2023/04/18 07:18:48;;;;;;;31.83;24.10;;;;;;;;;;5119539;28;20470;-70
2023/04/18 07:21:14;;;;;;;35.70;24.90;;;;;;;;;;5113027;27;20505;-70
2023/04/18 07:23:41;;;;;;;31.87;22.00;;;;;;;;;;5120125;28;20478;-70
2023/04/18 07:26:10;;;;;;;30.20;21.37;;;;;;;;;;5119887;28;20477;-70
2023/04/18 07:28:36;;;;;;;36.17;23.43;;;;;;;;;;5113416;28;20569;-70
2023/04/18 07:31:03;;;;;;;31.10;22.93;;;;;;;;;;5123900;27;21075;-71
2023/04/18 07:33:32;;;;;;;29.17;22.17;;;;;;;;;;5116653;27;20523;-71
2023/04/18 07:35:59;;;;;;;32.10;23.57;;;;;;;;;;5129872;27;20477;-71
2023/04/18 07:38:25;;;;;;;33.47;24.23;;;;;;;;;;5123840;27;20478;-71
2023/04/18 07:40:56;;;;;;;29.90;22.73;;;;;;;;;;5119248;27;20497;-71
2023/04/18 07:43:24;;;;;;;27.93;22.40;;;;;;;;;;5117865;28;20467;-70
2023/04/18 07:45:51;;;;;;;29.30;21.37;;;;;;;;;;5121209;28;20533;-71
2023/04/18 07:48:17;;;;;;;23.53;19.87;;;;;;;;;;5116215;27;20474;-71
2023/04/18 07:50:43;;;;;;;27.80;19.40;;;;;;;;;;5112694;28;20479;-71
2023/04/18 07:53:10;;;;;;;22.47;18.67;;;;;;;;;;5100261;28;20491;-71
2023/04/18 07:55:36;;;;;;;25.17;20.07;;;;;;;;;;5108455;27;20477;-71
2023/04/18 07:58:03;;;;;;;24.37;18.07;;;;;;;;;;5121441;28;20453;-70
2023/04/18 08:00:31;;;;;;;28.67;19.57;;;;;;;;;;5120335;27;20485;-70
2023/04/18 08:02:57;;;;;;;26.20;18.20;;;;;;;;;;5123329;28;20472;-70
2023/04/18 08:05:24;;;;;;;27.50;19.43;;;;;;;;;;5120027;28;20541;-70
2023/04/18 08:07:51;;;;;;;28.37;19.47;;;;;;;;;;5128072;28;20633;-70
2023/04/18 08:10:18;;;;;;;23.93;18.83;;;;;;;;;;5124163;28;20928;-70
2023/04/18 08:12:44;;;;;;;25.57;20.80;;;;;;;;;;5120849;28;20524;-70
2023/04/18 08:15:11;;;;;;;26.30;20.70;;;;;;;;;;5120941;28;20458;-70
2023/04/18 08:17:41;;;;;;;23.60;17.80;;;;;;;;;;5123640;28;20477;-70
2023/04/18 08:20:08;;;;;;;24.43;17.57;;;;;;;;;;5125015;27;21201;-70
2023/04/18 08:22:34;;;;;;;26.93;19.30;;;;;;;;;;5112380;28;20481;-70
2023/04/18 08:25:00;;;;;;;26.73;19.47;;;;;;;;;;5124417;28;20503;-71
2023/04/18 08:27:27;;;;;;;27.93;20.10;;;;;;;;;;5125883;28;20481;-70
2023/04/18 08:29:54;;;;;;;25.43;20.30;;;;;;;;;;5121884;28;20783;-70
2023/04/18 08:32:20;;;;;;;25.47;20.30;;;;;;;;;;5124468;27;21044;-70
2023/04/18 08:34:48;;;;;;;20.57;18.17;;;;;;;;;;5121925;28;21045;-70
2023/04/18 08:37:14;;;;;;;24.13;17.63;;;;;;;;;;5123850;27;20474;-71
2023/04/18 08:39:41;;;;;;;21.13;17.17;;;;;;;;;;5125766;27;20485;-71
2023/04/18 08:42:10;;;;;;;23.93;19.50;;;;;;;;;;5129313;27;20502;-71
2023/04/18 08:44:37;;;;;;;23.47;20.03;;;;;;;;;;5124826;28;20468;-71
2023/04/18 08:47:03;;;;;;;25.03;18.47;;;;;;;;;;5106873;27;20544;-71
2023/04/18 08:49:30;;;;;;;23.10;18.40;;;;;;;;;;5098977;28;20455;-70
2023/04/18 08:51:59;;;;;;;20.33;18.00;;;;;;;;;;5111404;28;20497;-71
2023/04/18 08:54:29;;;;;;;25.40;19.33;;;;;;;;;;5129034;27;20486;-71
2023/04/18 08:57:05;;;;;;;26.37;19.40;;;;;;;;;;5106624;28;20479;-71
2023/04/18 08:59:34;;;;;;;24.00;19.60;;;;;;;;;;5107550;28;20970;-71
2023/04/18 09:02:01;;;;;;;25.70;20.07;;;;;;;;;;5118286;28;20469;-71
2023/04/18 09:04:35;;;;;;;25.63;19.47;;;;;;;;;;5124126;27;20512;-71
2023/04/18 09:07:03;;;;;;;31.03;20.73;;;;;;;;;;5124451;27;20501;-71
2023/04/18 09:09:40;;;;;;;23.77;20.17;;;;;;;;;;5123936;27;20478;-71
2023/04/18 09:12:07;;;;;;;24.13;19.50;;;;;;;;;;5124456;27;20498;-71
2023/04/18 09:14:36;;;;;;;26.50;21.00;;;;;;;;;;5127632;27;20990;-71
2023/04/18 09:17:02;;;;;;;24.83;20.57;;;;;;;;;;5113177;27;20480;-71
2023/04/18 09:19:29;;;;;;;24.53;21.93;;;;;;;;;;5116087;28;20477;-71
2023/04/18 09:21:59;;;;;;;28.67;20.60;;;;;;;;;;5111565;27;20494;-72
2023/04/18 09:24:27;;;;;;;23.63;19.83;;;;;;;;;;5104159;28;20515;-71
2023/04/18 09:26:54;;;;;;;24.10;19.30;;;;;;;;;;5108917;28;20556;-70
2023/04/18 09:29:22;;;;;;;22.53;20.10;;;;;;;;;;5117374;27;20481;-70
2023/04/18 09:31:56;;;;;;;21.57;17.70;;;;;;;;;;5107177;28;20481;-71
2023/04/18 09:34:23;;;;;;;22.00;18.60;;;;;;;;;;5096711;28;20485;-70
2023/04/18 09:37:04;;;;;;;21.53;18.30;;;;;;;;;;5115906;27;20561;-71
2023/04/18 09:39:32;;;;;;;23.50;19.47;;;;;;;;;;5122145;27;20489;-71
2023/04/18 09:41:58;;;;;;;22.33;19.37;;;;;;;;;;5127720;27;20595;-71
2023/04/18 09:44:25;;;;;;;23.00;18.70;;;;;;;;;;5120631;28;20450;-71
2023/04/18 09:46:51;;;;;;;19.20;17.17;;;;;;;;;;5079743;28;20817;-71
2023/04/18 09:49:18;;;;;;;21.07;17.37;;;;;;;;;;5089773;28;20483;-71
2023/04/18 09:51:45;;;;;;;18.97;16.90;;;;;;;;;;5109255;28;20875;-71
2023/04/18 09:54:14;;;;;;;20.03;17.93;;;;;;;;;;5112585;28;21148;-71
2023/04/18 09:56:43;;;;;;;20.50;17.90;;;;;;;;;;5102994;28;20791;-71
2023/04/18 09:59:10;;;;;;;21.00;16.90;;;;;;;;;;5087632;28;20530;-71
2023/04/18 10:01:38;;;;;;;22.13;16.10;;;;;;;;;;5118655;27;20477;-71
2023/04/18 10:04:06;;;;;;;19.40;16.87;;;;;;;;;;5116643;27;20474;-71
2023/04/18 10:06:33;;;;;;;17.53;15.73;;;;;;;;;;5122131;28;20845;-71
2023/04/18 10:09:03;;;;;;;18.67;16.77;;;;;;;;;;5122605;28;20446;-71
2023/04/18 10:11:30;;;;;;;19.70;17.70;;;;;;;;;;5129199;27;20491;-71
2023/04/18 10:14:02;;;;;;;19.87;17.27;;;;;;;;;;5117877;27;20483;-71
2023/04/18 10:16:30;;;;;;;19.37;17.30;;;;;;;;;;5102696;28;20502;-72
2023/04/18 10:18:57;;;;;;;18.50;16.50;;;;;;;;;;5098792;28;20450;-71
2023/04/18 10:21:23;;;;;;;18.37;16.20;;;;;;;;;;5107359;27;20486;-72
2023/04/18 10:23:50;;;;;;;21.97;17.10;;;;;;;;;;5115931;28;20454;-71
2023/04/18 10:26:16;;;;;;;18.67;16.70;;;;;;;;;;5113265;28;20502;-72
2023/04/18 10:28:53;;;;;;;20.30;17.90;;;;;;;;;;5126364;27;20978;-72
2023/04/18 10:31:21;;;;;;;19.30;17.40;;;;;;;;;;5106584;27;20472;-71
2023/04/18 10:33:48;;;;;;;21.50;19.20;;;;;;;;;;5105475;28;21020;-72
2023/04/18 10:36:15;;;;;;;24.83;18.33;;;;;;;;;;5108558;28;20469;-72
2023/04/18 10:38:47;;;;;;;18.50;16.60;;;;;;;;;;5128598;27;20515;-71
2023/04/18 10:41:21;;;;;;;16.03;14.50;;;;;;;;;;5123311;27;20484;-71
2023/04/18 10:44:06;;;;;;;19.30;17.20;;;;;;;;;;5122912;27;20550;-72
2023/04/18 10:46:33;;;;;;;18.07;16.37;;;;;;;;;;5119374;28;20478;-72
2023/04/18 10:49:13;;;;;;;18.27;16.47;;;;;;;;;;5121779;27;20501;-71
2023/04/18 10:51:43;;;;;;;19.30;17.50;;;;;;;;;;5129504;27;20477;-72
2023/04/18 10:54:12;;;;;;;17.63;15.83;;;;;;;;;;5119297;28;20565;-70
2023/04/18 10:56:39;;;;;;;17.73;15.97;;;;;;;;;;5122474;27;20473;-70
2023/04/18 10:59:06;;;;;;;17.83;16.13;;;;;;;;;;5124052;27;20473;-72
2023/04/18 11:01:36;;;;;;;18.20;16.40;;;;;;;;;;5105332;28;20471;-71
2023/04/18 11:04:10;;;;;;;16.50;14.80;;;;;;;;;;5091383;28;20482;-71
2023/04/18 11:06:46;;;;;;;16.57;14.87;;;;;;;;;;5112927;28;20541;-71
2023/04/18 11:09:13;;;;;;;20.00;16.53;;;;;;;;;;5122513;28;20442;-70
2023/04/18 11:11:40;;;;;;;16.97;15.37;;;;;;;;;;5124069;27;20489;-70
2023/04/18 11:14:06;;;;;;;17.67;15.80;;;;;;;;;;5121489;27;20478;-70
2023/04/18 11:16:34;;;;;;;17.10;15.30;;;;;;;;;;5100519;28;20506;-70
2023/04/18 11:19:01;;;;;;;18.13;13.80;;;;;;;;;;5098012;28;20474;-70
2023/04/18 11:21:28;;;;;;;15.67;14.07;;;;;;;;;;5096263;28;20487;-71
2023/04/18 11:23:55;;;;;;;15.47;13.90;;;;;;;;;;5099872;28;20737;-71
2023/04/18 11:26:25;;;;;;;15.40;13.80;;;;;;;;;;5109427;28;20482;-71
2023/04/18 11:29:03;;;;;;;15.00;13.50;;;;;;;;;;5099115;28;20453;-71
2023/04/18 11:31:30;;;;;;;16.27;14.67;;;;;;;;;;5116087;27;21025;-71
2023/04/18 11:33:58;;;;;;;14.30;12.80;;;;;;;;;;5120652;27;20513;-71
2023/04/18 11:36:25;;;;;;;15.87;13.90;;;;;;;;;;5101189;28;20498;-71
2023/04/18 11:38:51;;;;;;;18.53;14.17;;;;;;;;;;5109480;28;20465;-71
2023/04/18 11:41:17;;;;;;;14.50;13.00;;;;;;;;;;5118645;27;20493;-70
2023/04/18 11:43:45;;;;;;;16.27;14.40;;;;;;;;;;5120886;28;20478;-70
2023/04/18 11:46:12;;;;;;;14.93;13.43;;;;;;;;;;5113764;27;20520;-70
2023/04/18 11:48:39;;;;;;;15.50;13.90;;;;;;;;;;5101446;28;20487;-70
2023/04/18 11:51:07;;;;;;;14.43;13.10;;;;;;;;;;5098889;28;20485;-70
2023/04/18 11:53:34;;;;;;;15.33;13.50;;;;;;;;;;5091257;28;20574;-70
2023/04/18 11:56:02;;;;;;;14.57;13.07;;;;;;;;;;5089835;28;20477;-70
2023/04/18 11:58:32;;;;;;;15.17;13.63;;;;;;;;;;5119379;28;20565;-71
2023/04/18 12:00:59;;;;;;;15.80;14.20;;;;;;;;;;5103516;28;20986;-70
2023/04/18 12:03:26;;;;;;;13.13;11.73;;;;;;;;;;5107996;28;20489;-70
2023/04/18 12:05:58;;;;;;;14.10;11.93;;;;;;;;;;5111423;28;20479;-70
2023/04/18 12:08:26;;;;;;;14.20;12.13;;;;;;;;;;5109441;28;20475;-71
2023/04/18 12:10:53;;;;;;;15.10;13.60;;;;;;;;;;5111194;27;20479;-73
2023/04/18 12:13:26;;;;;;;14.50;12.60;;;;;;;;;;5105384;28;20455;-71
2023/04/18 12:15:53;;;;;;;13.23;11.93;;;;;;;;;;5106980;28;20494;-70
2023/04/18 12:18:20;;;;;;;12.93;11.63;;;;;;;;;;5128904;27;20437;-71
2023/04/18 12:20:48;;;;;;;13.07;11.67;;;;;;;;;;5110173;28;20475;-70
2023/04/18 12:23:29;;;;;;;14.47;12.97;;;;;;;;;;5112856;28;20445;-71
2023/04/18 12:25:58;;;;;;;14.83;12.70;;;;;;;;;;5107569;27;20482;-71
2023/04/18 12:28:26;;;;;;;12.90;11.50;;;;;;;;;;5106686;28;20868;-71
2023/04/18 12:30:52;;;;;;;14.33;12.80;;;;;;;;;;5112997;28;20569;-71
2023/04/18 12:33:19;;;;;;;12.73;11.43;;;;;;;;;;5104157;28;20439;-71
2023/04/18 12:35:45;;;;;;;12.77;11.47;;;;;;;;;;5115840;28;20477;-71
2023/04/18 12:38:12;;;;;;;13.20;11.80;;;;;;;;;;5107480;28;20438;-71
2023/04/18 12:40:40;;;;;;;12.57;11.27;;;;;;;;;;5108235;27;20476;-71
2023/04/18 12:43:06;;;;;;;12.20;10.60;;;;;;;;;;5121028;28;21356;-71
2023/04/18 12:45:33;;;;;;;12.77;11.47;;;;;;;;;;5126863;27;20987;-71
2023/04/18 12:47:59;;;;;;;13.67;10.70;;;;;;;;;;5126749;27;20474;-71
2023/04/18 12:50:28;;;;;;;12.27;10.50;;;;;;;;;;5131058;27;20521;-71
2023/04/18 12:52:55;;;;;;;17.83;11.17;;;;;;;;;;5129812;27;20543;-70
2023/04/18 12:55:25;;;;;;;12.60;11.23;;;;;;;;;;5126084;27;20989;-71
2023/04/18 12:57:53;;;;;;;11.37;10.20;;;;;;;;;;5125856;28;20449;-71
2023/04/18 13:00:22;;;;;;;12.87;11.50;;;;;;;;;;5127008;27;20453;-71
2023/04/18 13:02:48;;;;;;;12.23;11.20;;;;;;;;;;5129023;27;20488;-71
2023/04/18 13:05:15;;;;;;;13.37;11.40;;;;;;;;;;5128584;27;20473;-71
2023/04/18 13:07:42;;;;;;;14.07;12.17;;;;;;;;;;5126246;27;20449;-71
2023/04/18 13:10:13;;;;;;;12.50;10.97;;;;;;;;;;5136147;27;20531;-71
2023/04/18 13:12:40;;;;;;;10.57;9.57;;;;;;;;;;5128483;27;20611;-72
2023/04/18 13:15:09;;;;;;;11.23;10.13;;;;;;;;;;5121918;28;20505;-71
2023/04/18 13:17:36;;;;;;;10.43;9.43;;;;;;;;;;5123859;27;20534;-71
2023/04/18 13:20:05;;;;;;;10.90;9.80;;;;;;;;;;5125698;27;20470;-70
2023/04/18 13:22:32;;;;;;;11.77;10.67;;;;;;;;;;5119387;27;20469;-72
2023/04/18 13:24:59;;;;;;;11.10;10.00;;;;;;;;;;5128085;27;20450;-72
2023/04/18 13:27:25;;;;;;;11.63;10.43;;;;;;;;;;5106846;28;20478;-71
2023/04/18 13:29:52;;;;;;;11.07;10.03;;;;;;;;;;5127322;27;20766;-71
2023/04/18 13:32:19;;;;;;;10.17;9.17;;;;;;;;;;5123708;27;20489;-70
2023/04/18 13:34:46;;;;;;;12.37;10.43;;;;;;;;;;5097248;28;20493;-71
2023/04/18 13:37:13;;;;;;;11.63;9.57;;;;;;;;;;5117469;28;20482;-71
2023/04/18 13:39:40;;;;;;;13.97;12.00;;;;;;;;;;5126881;27;20454;-71
2023/04/18 13:42:06;;;;;;;10.37;9.33;;;;;;;;;;5117987;27;20475;-71
2023/04/18 13:44:33;;;;;;;10.30;9.20;;;;;;;;;;5116741;27;20486;-71
2023/04/18 13:47:00;;;;;;;10.50;9.50;;;;;;;;;;5113947;27;20473;-71
2023/04/18 13:49:28;;;;;;;10.97;8.57;;;;;;;;;;5110837;28;20450;-71
2023/04/18 13:51:56;;;;;;;9.80;8.80;;;;;;;;;;5100022;28;20587;-71
2023/04/18 13:54:22;;;;;;;9.97;9.00;;;;;;;;;;5091550;28;20475;-71
2023/04/18 13:56:49;;;;;;;9.20;8.00;;;;;;;;;;5087999;28;20495;-72
2023/04/18 13:59:15;;;;;;;8.50;7.70;;;;;;;;;;5101096;28;20492;-72
2023/04/18 14:01:42;;;;;;;12.53;8.43;;;;;;;;;;5112400;28;20666;-72
2023/04/18 14:04:08;;;;;;;9.80;8.40;;;;;;;;;;5110441;27;20564;-71
2023/04/18 14:06:37;;;;;;;9.63;8.73;;;;;;;;;;5131789;27;20512;-71
2023/04/18 14:09:03;;;;;;;10.03;8.30;;;;;;;;;;5126962;27;20777;-72
2023/04/18 14:11:30;;;;;;;8.83;8.03;;;;;;;;;;5125605;27;20503;-72
2023/04/18 14:13:56;;;;;;;10.10;8.83;;;;;;;;;;5126660;27;20511;-71
2023/04/18 14:16:22;;;;;;;9.47;8.57;;;;;;;;;;5124042;27;20517;-71
2023/04/18 14:18:49;;;;;;;9.40;8.50;;;;;;;;;;5118091;28;20442;-71
2023/04/18 14:21:15;;;;;;;10.10;9.10;;;;;;;;;;5120575;28;20505;-71
2023/04/18 14:23:43;;;;;;;10.33;9.20;;;;;;;;;;5121217;28;20478;-71